Time;durP1;ratioP1;P1;durP2;ratioP2;P2;SDS_P1;SDS_P2;PMS_P1;PMS_P2;Temp;Humidity;BMP_temperature;BMP_pressure;BME280_temperature;BME280_humidity;BME280_pressure;Samples;Min_cycle;Max_cycle;Signal;HPM_P1;HPM_P2
2021/12/30 00:00:25;;;;;;;46.67;6.13;;;8.80;99.90;;;;;;4971362;28;20427;-59
2021/12/30 00:02:50;;;;;;;46.95;6.97;;;8.80;99.90;;;;;;4971638;28;20038;-58
2021/12/30 00:05:17;;;;;;;44.00;6.38;;;8.80;99.90;;;;;;4979573;28;20145;-58
2021/12/30 00:07:43;;;;;;;49.50;6.43;;;8.80;99.90;;;;;;4971630;28;20066;-58
2021/12/30 00:10:10;;;;;;;51.33;6.35;;;8.80;99.90;;;;;;4972725;28;20102;-58
2021/12/30 00:12:37;;;;;;;49.10;6.85;;;8.70;99.90;;;;;;4970546;28;20051;-57
2021/12/30 00:15:05;;;;;;;48.22;6.65;;;8.60;99.90;;;;;;4971675;28;20113;-57
2021/12/30 00:17:31;;;;;;;57.70;7.25;;;8.60;99.90;;;;;;4971775;28;20166;-57
2021/12/30 00:19:57;;;;;;;42.55;6.25;;;8.50;99.90;;;;;;4971430;28;20125;-57
2021/12/30 00:22:23;;;;;;;55.65;6.50;;;8.40;99.90;;;;;;4971687;28;20039;-57
2021/12/30 00:24:49;;;;;;;50.00;6.35;;;8.40;99.90;;;;;;4973856;28;20043;-55
2021/12/30 00:27:14;;;;;;;46.10;6.20;;;8.40;99.90;;;;;;4975083;28;20496;-57
2021/12/30 00:29:40;;;;;;;51.17;6.50;;;8.30;99.90;;;;;;4975148;28;20066;-57
2021/12/30 00:32:06;;;;;;;47.65;7.07;;;8.30;99.90;;;;;;4974825;28;20043;-57
2021/12/30 00:34:32;;;;;;;43.30;6.22;;;8.30;99.90;;;;;;4974771;28;20121;-57
2021/12/30 00:36:57;;;;;;;43.60;7.38;;;8.30;99.90;;;;;;4974926;28;20113;-56
2021/12/30 00:39:23;;;;;;;51.13;7.07;;;8.20;99.90;;;;;;4975185;28;20049;-57
2021/12/30 00:41:49;;;;;;;44.30;5.78;;;8.20;99.90;;;;;;4974899;28;20449;-56
2021/12/30 00:44:15;;;;;;;50.63;6.90;;;8.20;99.90;;;;;;4974513;28;20046;-57
2021/12/30 00:46:40;;;;;;;42.00;6.53;;;8.20;99.90;;;;;;4974601;28;20545;-57
2021/12/30 00:49:06;;;;;;;41.70;7.05;;;8.10;99.90;;;;;;4975513;28;20528;-56
2021/12/30 00:51:32;;;;;;;46.22;6.15;;;8.10;99.90;;;;;;4974524;28;20035;-56
2021/12/30 00:53:57;;;;;;;52.60;7.03;;;8.10;99.90;;;;;;4974429;28;20034;-56
2021/12/30 00:56:23;;;;;;;53.47;7.32;;;8.10;99.90;;;;;;4974684;28;20494;-57
2021/12/30 00:58:49;;;;;;;49.20;6.78;;;8.00;99.90;;;;;;4974262;28;20517;-57
2021/12/30 01:01:14;;;;;;;50.00;7.40;;;8.10;99.90;;;;;;4974026;28;20039;-57
2021/12/30 01:03:40;;;;;;;47.08;7.35;;;8.10;99.90;;;;;;4974351;28;20722;-56
2021/12/30 01:06:06;;;;;;;50.72;7.32;;;8.10;99.90;;;;;;4975399;28;20051;-57
2021/12/30 01:08:32;;;;;;;49.60;6.90;;;8.10;99.90;;;;;;4975063;28;20449;-57
2021/12/30 01:10:58;;;;;;;47.25;6.90;;;8.10;99.90;;;;;;4974299;28;20051;-57
2021/12/30 01:13:27;;;;;;;50.78;7.07;;;8.00;99.90;;;;;;4974042;28;20479;-57
2021/12/30 01:16:02;;;;;;;44.88;7.30;;;8.00;99.90;;;;;;4957987;28;20046;-57
2021/12/30 01:21:11;;;;;;;47.22;6.95;;;7.90;99.90;;;;;;4974285;28;20047;-57
2021/12/30 01:23:41;;;;;;;53.55;8.85;;;7.90;99.90;;;;;;4956597;28;20043;-57
2021/12/30 01:26:07;;;;;;;54.40;8.05;;;7.80;99.90;;;;;;4974002;28;20096;-57
2021/12/30 01:28:33;;;;;;;53.55;7.78;;;8.00;99.90;;;;;;4974038;28;20035;-58
2021/12/30 01:30:59;;;;;;;58.65;8.32;;;7.80;99.90;;;;;;4973641;28;20041;-57
2021/12/30 01:33:25;;;;;;;54.95;9.40;;;7.80;99.90;;;;;;4991427;28;20041;-57
2021/12/30 01:35:50;;;;;;;52.42;9.48;;;7.80;99.90;;;;;;4982048;28;20394;-57
2021/12/30 01:38:16;;;;;;;58.75;9.85;;;7.90;99.90;;;;;;4974286;28;20398;-58
2021/12/30 01:40:46;;;;;;;65.07;11.80;;;8.00;99.90;;;;;;4973540;28;20047;-57
2021/12/30 01:43:13;;;;;;;79.45;13.52;;;8.10;99.90;;;;;;4973629;28;20047;-58
2021/12/30 01:45:41;;;;;;;62.85;13.50;;;8.10;99.90;;;;;;4973649;28;20162;-57
2021/12/30 01:48:06;;;;;;;69.82;14.25;;;8.20;99.90;;;;;;4991969;28;20095;-57
2021/12/30 01:50:33;;;;;;;79.13;14.15;;;8.40;99.90;;;;;;4991791;28;20054;-57
2021/12/30 01:52:59;;;;;;;71.15;13.68;;;8.40;99.90;;;;;;4993195;28;20041;-58
2021/12/30 01:55:26;;;;;;;68.45;13.80;;;8.40;99.90;;;;;;4992561;28;20046;-57
2021/12/30 01:57:52;;;;;;;77.35;15.25;;;8.40;99.90;;;;;;4992860;28;20066;-58
2021/12/30 02:00:22;;;;;;;64.38;15.98;;;8.60;99.90;;;;;;4992591;28;20524;-57
2021/12/30 02:02:48;;;;;;;75.32;16.45;;;8.60;99.90;;;;;;4974778;28;20045;-57
2021/12/30 02:05:14;;;;;;;81.28;17.83;;;8.50;99.90;;;;;;4975127;28;20133;-58
2021/12/30 02:07:40;;;;;;;86.72;19.73;;;8.60;99.90;;;;;;4992486;28;20541;-57
2021/12/30 02:10:07;;;;;;;71.72;17.77;;;8.60;99.90;;;;;;4975845;28;20047;-57
2021/12/30 02:12:35;;;;;;;85.93;19.83;;;8.70;99.90;;;;;;4973300;28;20139;-57
2021/12/30 02:15:02;;;;;;;92.88;20.98;;;8.70;99.90;;;;;;4973207;28;20402;-58
2021/12/30 02:17:28;;;;;;;84.80;21.10;;;8.90;99.90;;;;;;4973208;28;20445;-57
2021/12/30 02:20:03;;;;;;;78.95;22.38;;;8.70;99.90;;;;;;4973063;28;20035;-57
2021/12/30 02:22:29;;;;;;;103.88;23.58;;;8.80;99.90;;;;;;4991370;28;20463;-58
2021/12/30 02:24:57;;;;;;;91.82;22.15;;;8.80;99.90;;;;;;4992165;28;20080;-58
2021/12/30 02:27:23;;;;;;;102.32;25.52;;;8.90;99.90;;;;;;4992297;28;20038;-57
2021/12/30 02:29:49;;;;;;;91.95;24.95;;;8.90;99.90;;;;;;4991893;28;20441;-58
2021/12/30 02:32:15;;;;;;;88.57;22.70;;;9.00;99.90;;;;;;4991926;28;20037;-58
2021/12/30 02:34:41;;;;;;;86.60;22.65;;;9.00;99.90;;;;;;4992068;28;20058;-57
2021/12/30 02:37:07;;;;;;;98.80;24.13;;;9.00;99.90;;;;;;4992046;28;20108;-57
2021/12/30 02:39:34;;;;;;;85.00;22.73;;;9.10;99.90;;;;;;4991954;28;20046;-57
2021/12/30 02:42:00;;;;;;;94.10;23.33;;;9.10;99.90;;;;;;4991781;28;20046;-57
2021/12/30 02:44:26;;;;;;;89.63;23.05;;;9.10;99.90;;;;;;4992128;28;20042;-57
2021/12/30 02:46:53;;;;;;;86.32;23.63;;;9.20;99.90;;;;;;4991608;28;20529;-57
2021/12/30 02:49:20;;;;;;;79.05;21.70;;;9.20;99.90;;;;;;4991533;28;20035;-57
2021/12/30 02:51:46;;;;;;;88.95;22.33;;;9.30;99.90;;;;;;4991829;28;20089;-57
2021/12/30 02:54:12;;;;;;;94.95;21.55;;;9.30;99.90;;;;;;4991944;28;20109;-57
2021/12/30 02:56:37;;;;;;;83.93;21.67;;;9.30;99.90;;;;;;4991654;28;20046;-57
2021/12/30 02:59:04;;;;;;;87.88;21.20;;;9.30;99.90;;;;;;4991649;28;20110;-58
2021/12/30 03:01:32;;;;;;;70.32;21.23;;;9.50;99.90;;;;;;4990218;28;20034;-57
2021/12/30 03:04:01;;;;;;;84.88;20.27;;;9.20;99.90;;;;;;4972452;28;20039;-57
2021/12/30 03:06:27;;;;;;;77.22;20.48;;;9.30;99.90;;;;;;4971896;28;20055;-57
2021/12/30 03:08:53;;;;;;;80.38;20.58;;;9.30;99.90;;;;;;4972433;28;20030;-57
2021/12/30 03:11:21;;;;;;;89.82;21.70;;;9.30;99.90;;;;;;4972343;28;20038;-57
2021/12/30 03:13:47;;;;;;;94.97;21.10;;;9.40;99.90;;;;;;4972341;28;20042;-57
2021/12/30 03:16:20;;;;;;;93.72;21.08;;;9.40;99.90;;;;;;4972736;28;20463;-58
2021/12/30 03:18:48;;;;;;;85.15;19.33;;;9.50;99.90;;;;;;4990281;28;20050;-57
2021/12/30 03:21:16;;;;;;;91.15;20.27;;;9.50;99.90;;;;;;4991183;28;20049;-57
2021/12/30 03:23:43;;;;;;;86.18;20.17;;;9.50;99.90;;;;;;4991714;28;20077;-58
2021/12/30 03:26:09;;;;;;;93.13;19.75;;;9.60;99.90;;;;;;4991413;28;20082;-57
2021/12/30 03:28:36;;;;;;;85.55;19.73;;;9.50;99.90;;;;;;4991576;28;20034;-57
2021/12/30 03:31:02;;;;;;;83.25;20.90;;;9.50;99.90;;;;;;4988651;28;20502;-57
2021/12/30 03:33:31;;;;;;;84.78;19.90;;;9.50;99.90;;;;;;4975549;28;20478;-57
2021/12/30 03:35:59;;;;;;;87.65;22.17;;;9.50;99.90;;;;;;4976750;28;20047;-57
2021/12/30 03:38:27;;;;;;;91.38;20.77;;;9.50;99.90;;;;;;4972154;28;20049;-57
2021/12/30 03:40:52;;;;;;;99.50;21.80;;;9.60;99.90;;;;;;4971744;28;20042;-57
2021/12/30 03:43:18;;;;;;;89.60;21.90;;;9.60;99.90;;;;;;4972043;28;20097;-57
2021/12/30 03:45:44;;;;;;;104.93;23.42;;;9.60;99.90;;;;;;4971655;28;20043;-58
2021/12/30 03:48:11;;;;;;;100.40;21.67;;;9.70;99.90;;;;;;4971762;28;20046;-57
2021/12/30 03:50:43;;;;;;;84.43;22.50;;;9.70;99.90;;;;;;4969877;28;20051;-57
2021/12/30 03:53:10;;;;;;;107.07;23.73;;;9.70;99.90;;;;;;4971871;28;20078;-57
2021/12/30 03:55:36;;;;;;;91.72;21.65;;;9.70;99.90;;;;;;4971713;28;20046;-57
2021/12/30 03:58:02;;;;;;;115.68;23.73;;;9.70;99.90;;;;;;4971719;28;20401;-57
2021/12/30 04:00:28;;;;;;;105.97;22.80;;;9.80;99.90;;;;;;4974966;28;20550;-57
2021/12/30 04:02:54;;;;;;;106.82;24.25;;;9.80;99.90;;;;;;4975164;28;20430;-57
2021/12/30 04:05:21;;;;;;;109.10;24.95;;;9.80;99.90;;;;;;4975323;28;20047;-57
2021/12/30 04:07:47;;;;;;;117.82;25.20;;;9.80;99.90;;;;;;4975660;28;20093;-57
2021/12/30 04:10:16;;;;;;;126.90;25.52;;;9.80;99.90;;;;;;4993509;28;20046;-57
2021/12/30 04:12:44;;;;;;;112.78;25.17;;;9.90;99.90;;;;;;4994644;28;20056;-57
2021/12/30 04:15:10;;;;;;;92.60;24.58;;;9.80;99.90;;;;;;4994754;28;20070;-58
2021/12/30 04:17:36;;;;;;;116.03;26.98;;;9.80;99.90;;;;;;4994886;28;20042;-57
2021/12/30 04:20:07;;;;;;;92.80;25.05;;;9.90;99.90;;;;;;4994743;28;20045;-57
2021/12/30 04:22:34;;;;;;;113.63;26.92;;;9.90;99.90;;;;;;4994359;28;20043;-57
2021/12/30 04:24:59;;;;;;;100.50;26.23;;;10.00;99.90;;;;;;4994671;28;20054;-57
2021/12/30 04:27:25;;;;;;;110.35;28.23;;;9.90;99.90;;;;;;4994274;28;20367;-57
2021/12/30 04:29:51;;;;;;;105.60;28.50;;;9.90;99.90;;;;;;4994701;28;20511;-56
2021/12/30 04:32:17;;;;;;;112.93;29.50;;;10.00;99.90;;;;;;4993771;28;20581;-57
2021/12/30 04:34:43;;;;;;;119.05;31.20;;;10.00;99.90;;;;;;4994563;28;20038;-57
2021/12/30 04:37:08;;;;;;;105.47;28.27;;;10.00;99.90;;;;;;4994518;28;20038;-57
2021/12/30 04:39:34;;;;;;;121.68;29.50;;;10.10;99.90;;;;;;4994602;28;20049;-57
2021/12/30 04:42:01;;;;;;;115.97;31.13;;;10.10;99.90;;;;;;4994144;28;20057;-56
2021/12/30 04:44:28;;;;;;;109.18;30.05;;;10.10;99.90;;;;;;4994186;28;20042;-57
2021/12/30 04:46:55;;;;;;;119.50;30.92;;;10.20;99.90;;;;;;4994375;28;20042;-58
2021/12/30 04:49:20;;;;;;;112.10;30.08;;;10.20;99.90;;;;;;4994165;28;20494;-57
2021/12/30 04:51:46;;;;;;;128.10;32.75;;;10.20;99.90;;;;;;4994241;28;20034;-56
2021/12/30 04:54:12;;;;;;;129.10;34.03;;;10.30;99.90;;;;;;4994189;28;20453;-57
2021/12/30 04:56:37;;;;;;;126.95;33.05;;;10.30;99.90;;;;;;4994009;28;20406;-57
2021/12/30 04:59:03;;;;;;;137.90;34.50;;;10.30;99.90;;;;;;4993489;28;20043;-57
2021/12/30 05:01:29;;;;;;;129.18;34.67;;;10.40;99.90;;;;;;4993737;28;20042;-57
2021/12/30 05:03:55;;;;;;;144.68;35.60;;;10.50;99.90;;;;;;4993488;28;20042;-57
2021/12/30 05:06:21;;;;;;;126.20;34.65;;;10.40;99.90;;;;;;4993575;28;20061;-57
2021/12/30 05:08:46;;;;;;;135.20;35.58;;;10.40;99.90;;;;;;4993862;28;20042;-57
2021/12/30 05:11:12;;;;;;;144.82;35.35;;;10.40;99.90;;;;;;4993423;28;20390;-58
2021/12/30 05:13:38;;;;;;;147.98;37.70;;;10.50;99.90;;;;;;4993671;28;20034;-58
2021/12/30 05:16:04;;;;;;;137.25;36.60;;;10.50;99.90;;;;;;4993431;28;20046;-56
2021/12/30 05:18:32;;;;;;;164.43;40.17;;;10.50;99.90;;;;;;4993344;28;20070;-57
2021/12/30 05:21:00;;;;;;;157.50;39.15;;;10.50;99.90;;;;;;4993481;28;20065;-57
2021/12/30 05:23:26;;;;;;;189.73;42.50;;;10.60;99.90;;;;;;4993612;28;20116;-57
2021/12/30 05:25:52;;;;;;;184.02;40.70;;;10.60;99.90;;;;;;4993614;28;20054;-56
2021/12/30 05:28:18;;;;;;;192.90;41.30;;;10.70;99.90;;;;;;4993332;28;20414;-56
2021/12/30 05:30:44;;;;;;;142.38;35.13;;;10.60;99.90;;;;;;4977898;28;20050;-56
2021/12/30 05:33:09;;;;;;;168.00;40.90;;;10.60;99.90;;;;;;4973488;28;20027;-57
2021/12/30 05:35:35;;;;;;;170.65;39.47;;;10.70;99.90;;;;;;4973802;28;20042;-56
2021/12/30 05:38:02;;;;;;;166.98;36.85;;;10.70;99.90;;;;;;4973570;28;20035;-56
2021/12/30 05:40:29;;;;;;;158.45;37.22;;;10.70;99.90;;;;;;4973718;28;20043;-57
2021/12/30 05:42:54;;;;;;;177.73;37.20;;;10.70;99.90;;;;;;4973582;28;20065;-55
2021/12/30 05:45:21;;;;;;;149.20;35.58;;;10.70;99.90;;;;;;4973784;28;20051;-56
2021/12/30 05:47:48;;;;;;;182.85;36.33;;;10.80;99.90;;;;;;4973274;28;20077;-56
2021/12/30 05:50:19;;;;;;;168.85;34.80;;;10.80;99.90;;;;;;4973825;28;20045;-57
2021/12/30 05:52:45;;;;;;;173.00;35.25;;;10.80;99.90;;;;;;4973692;28;20525;-56
2021/12/30 05:55:11;;;;;;;173.82;36.47;;;10.80;99.90;;;;;;4973128;28;20042;-59
2021/12/30 05:57:38;;;;;;;179.20;35.45;;;10.90;99.90;;;;;;4973524;28;20039;-57
2021/12/30 06:00:06;;;;;;;162.70;35.78;;;10.90;99.90;;;;;;4973425;28;20035;-57
2021/12/30 06:02:31;;;;;;;159.35;35.63;;;10.90;99.90;;;;;;4991454;28;20042;-57
2021/12/30 06:04:57;;;;;;;147.00;33.47;;;11.10;99.90;;;;;;4992586;28;20047;-56
2021/12/30 06:07:23;;;;;;;167.85;34.70;;;11.00;99.90;;;;;;4984951;28;20058;-56
2021/12/30 06:09:48;;;;;;;142.77;34.38;;;10.90;99.90;;;;;;4973202;28;20043;-56
2021/12/30 06:12:14;;;;;;;170.05;35.42;;;11.00;99.90;;;;;;4973292;28;20058;-57
2021/12/30 06:14:40;;;;;;;138.07;32.65;;;11.00;99.90;;;;;;4973122;28;20043;-56
2021/12/30 06:17:06;;;;;;;141.68;31.13;;;11.00;99.90;;;;;;4972884;28;20038;-57
2021/12/30 06:19:32;;;;;;;125.05;31.15;;;11.00;99.90;;;;;;4973148;28;20533;-56
2021/12/30 06:21:57;;;;;;;133.93;30.45;;;11.00;99.90;;;;;;4972446;28;20035;-56
2021/12/30 06:24:23;;;;;;;107.93;29.17;;;11.00;99.90;;;;;;4973028;28;20466;-56
2021/12/30 06:26:49;;;;;;;138.45;31.50;;;11.00;99.90;;;;;;4972974;28;20074;-56
2021/12/30 06:29:14;;;;;;;108.55;28.95;;;11.00;99.90;;;;;;4971297;28;20039;-56
2021/12/30 06:31:41;;;;;;;116.88;28.63;;;11.00;99.90;;;;;;4972146;28;20046;-56
2021/12/30 06:34:07;;;;;;;112.53;29.05;;;11.10;99.90;;;;;;4972604;28;20322;-57
2021/12/30 06:36:34;;;;;;;112.93;26.52;;;11.10;99.90;;;;;;4972613;28;20383;-57
2021/12/30 06:38:59;;;;;;;108.15;26.05;;;11.10;99.90;;;;;;4972485;28;20200;-57
2021/12/30 06:41:25;;;;;;;97.63;24.23;;;11.10;99.90;;;;;;4955213;28;20125;-58
2021/12/30 06:43:51;;;;;;;78.88;21.67;;;11.10;99.90;;;;;;4972519;28;20046;-56
2021/12/30 06:46:20;;;;;;;62.45;18.67;;;11.00;99.90;;;;;;4972355;28;20043;-57
2021/12/30 06:48:46;;;;;;;53.97;16.15;;;11.10;99.90;;;;;;4972574;28;20031;-56
2021/12/30 06:51:13;;;;;;;55.85;16.30;;;11.10;99.90;;;;;;4990446;28;20053;-57
2021/12/30 06:53:39;;;;;;;47.80;14.18;;;11.00;99.90;;;;;;4991589;28;20121;-56
2021/12/30 06:56:06;;;;;;;43.45;13.20;;;11.00;99.90;;;;;;4992119;28;20037;-57
2021/12/30 06:58:32;;;;;;;43.72;13.02;;;11.10;99.90;;;;;;4991383;28;20038;-56
2021/12/30 07:00:58;;;;;;;39.60;12.93;;;11.10;99.90;;;;;;4991635;28;20552;-57
2021/12/30 07:03:24;;;;;;;37.08;11.60;;;11.10;99.90;;;;;;4991288;28;20050;-57
2021/12/30 07:05:54;;;;;;;46.38;12.70;;;11.10;99.90;;;;;;4991528;28;20101;-56
2021/12/30 07:08:20;;;;;;;36.97;11.98;;;11.10;99.90;;;;;;4991642;28;20065;-57
2021/12/30 07:10:45;;;;;;;40.97;12.60;;;11.10;99.90;;;;;;4991776;28;20049;-56
2021/12/30 07:13:11;;;;;;;38.03;12.88;;;11.10;99.90;;;;;;4991592;28;20030;-57
2021/12/30 07:15:37;;;;;;;37.55;12.55;;;11.30;99.90;;;;;;4991727;28;20042;-57
2021/12/30 07:18:03;;;;;;;38.42;12.63;;;11.10;99.90;;;;;;4991287;28;20065;-56
2021/12/30 07:20:28;;;;;;;43.40;14.30;;;11.10;99.90;;;;;;4991198;28;20482;-57
2021/12/30 07:22:54;;;;;;;42.92;14.93;;;11.10;99.90;;;;;;4991483;28;20041;-56
2021/12/30 07:25:20;;;;;;;45.00;15.80;;;11.20;99.90;;;;;;4991368;28;20118;-56
2021/12/30 07:27:55;;;;;;;46.78;16.10;;;11.10;99.90;;;;;;4991496;28;20509;-56
2021/12/30 07:30:23;;;;;;;48.42;16.85;;;11.10;99.90;;;;;;4991530;28;20042;-56
2021/12/30 07:32:49;;;;;;;48.42;16.75;;;11.20;99.90;;;;;;4991905;28;20474;-56
2021/12/30 07:35:16;;;;;;;52.85;17.00;;;11.20;99.90;;;;;;4995329;28;20046;-56
2021/12/30 07:37:42;;;;;;;53.83;17.67;;;11.20;99.90;;;;;;4995448;28;20081;-56
2021/12/30 07:40:09;;;;;;;56.50;18.27;;;11.20;99.90;;;;;;4995383;28;20092;-56
2021/12/30 07:42:35;;;;;;;65.70;20.02;;;11.20;99.90;;;;;;4995335;28;20039;-56
2021/12/30 07:45:01;;;;;;;67.57;20.27;;;11.30;99.90;;;;;;4994957;28;20038;-58
2021/12/30 07:47:26;;;;;;;63.60;19.10;;;11.30;99.90;;;;;;4995066;28;20038;-56
2021/12/30 07:49:52;;;;;;;64.22;20.40;;;11.30;99.90;;;;;;4995168;28;20034;-56
2021/12/30 07:52:19;;;;;;;73.50;21.73;;;11.30;99.90;;;;;;4994828;28;20589;-56
2021/12/30 07:54:44;;;;;;;67.25;22.98;;;11.30;99.90;;;;;;4995089;28;20045;-56
2021/12/30 07:57:23;;;;;;;75.18;23.10;;;11.30;99.90;;;;;;4995333;28;20042;-56
2021/12/30 07:59:50;;;;;;;64.60;22.80;;;11.40;99.90;;;;;;4995148;28;20056;-56
2021/12/30 08:02:16;;;;;;;69.65;24.20;;;11.40;99.90;;;;;;4994652;28;20038;-56
2021/12/30 08:04:42;;;;;;;87.68;26.88;;;11.50;99.90;;;;;;4994541;28;20470;-56
2021/12/30 08:07:08;;;;;;;63.58;24.48;;;11.60;99.90;;;;;;4981954;28;20043;-56
2021/12/30 08:09:33;;;;;;;79.72;26.08;;;11.60;99.90;;;;;;4981170;28;20043;-56
2021/12/30 08:12:00;;;;;;;60.50;22.77;;;11.70;99.90;;;;;;4977366;28;20421;-55
2021/12/30 08:14:27;;;;;;;62.58;23.73;;;11.70;99.90;;;;;;4985035;28;20043;-56
2021/12/30 08:16:52;;;;;;;51.10;22.38;;;11.70;99.90;;;;;;4975286;28;20074;-57
2021/12/30 08:19:18;;;;;;;56.33;22.45;;;11.80;99.90;;;;;;4977043;28;20077;-56
2021/12/30 08:21:44;;;;;;;43.78;20.05;;;11.70;99.90;;;;;;4978485;28;20494;-56
2021/12/30 08:24:10;;;;;;;48.50;19.27;;;11.80;99.90;;;;;;4979564;28;20121;-57
2021/12/30 08:26:36;;;;;;;45.50;19.83;;;11.80;99.90;;;;;;4981086;28;20113;-57
2021/12/30 08:29:02;;;;;;;47.22;18.30;;;11.80;99.90;;;;;;4979861;28;20031;-57
2021/12/30 08:31:28;;;;;;;41.05;17.20;;;11.80;99.90;;;;;;4978918;28;20041;-56
2021/12/30 08:33:54;;;;;;;32.58;16.42;;;11.90;99.90;;;;;;4978417;28;20034;-57
2021/12/30 08:36:20;;;;;;;36.03;17.63;;;11.90;99.90;;;;;;4980025;28;20398;-57
2021/12/30 08:38:46;;;;;;;35.90;17.35;;;11.90;99.90;;;;;;4963599;28;20039;-57
2021/12/30 08:41:12;;;;;;;36.42;17.42;;;12.00;99.90;;;;;;4961705;28;20047;-57
2021/12/30 08:43:37;;;;;;;28.80;16.42;;;11.90;99.90;;;;;;4980280;28;20034;-56
2021/12/30 08:46:03;;;;;;;36.53;17.55;;;12.00;99.90;;;;;;4978413;28;20039;-56
2021/12/30 08:48:29;;;;;;;33.45;18.45;;;12.00;99.90;;;;;;4982256;28;20040;-56
2021/12/30 08:50:56;;;;;;;37.40;19.20;;;12.00;99.90;;;;;;4978741;28;20047;-57
2021/12/30 08:53:25;;;;;;;38.60;19.45;;;12.00;99.90;;;;;;4978843;28;20474;-57
2021/12/30 08:55:51;;;;;;;38.63;20.95;;;12.00;99.90;;;;;;4979097;28;20043;-57
2021/12/30 08:58:18;;;;;;;38.33;20.55;;;12.00;99.90;;;;;;4978177;28;20066;-56
2021/12/30 09:00:46;;;;;;;35.00;20.90;;;12.00;99.90;;;;;;4976968;28;20092;-57
2021/12/30 09:03:13;;;;;;;37.72;21.98;;;12.00;99.90;;;;;;4973698;28;20604;-56
2021/12/30 09:05:38;;;;;;;39.80;21.20;;;12.00;99.90;;;;;;4976245;28;20034;-56
2021/12/30 09:08:04;;;;;;;37.55;21.48;;;12.00;99.90;;;;;;4976134;28;20097;-57
2021/12/30 09:10:35;;;;;;;44.80;23.73;;;12.00;99.90;;;;;;4976804;28;20027;-59
2021/12/30 09:13:01;;;;;;;42.42;22.98;;;12.00;99.90;;;;;;4980057;28;20039;-58
2021/12/30 09:15:27;;;;;;;42.17;23.23;;;12.00;99.90;;;;;;4978229;28;20046;-58
2021/12/30 09:17:53;;;;;;;42.97;22.60;;;12.00;99.90;;;;;;4979975;28;20027;-58
2021/12/30 09:20:21;;;;;;;37.15;21.48;;;12.10;99.90;;;;;;4976395;28;20050;-58
2021/12/30 09:22:46;;;;;;;36.40;21.80;;;12.10;99.90;;;;;;4976503;28;20042;-57
2021/12/30 09:25:12;;;;;;;37.88;22.00;;;12.10;99.90;;;;;;4977041;28;20038;-58
2021/12/30 09:27:40;;;;;;;44.25;21.83;;;12.10;99.90;;;;;;4978524;28;20038;-58
2021/12/30 09:30:16;;;;;;;33.28;19.48;;;12.10;99.90;;;;;;4979153;28;20490;-58
2021/12/30 09:32:43;;;;;;;39.88;17.80;;;12.10;99.90;;;;;;4978410;28;20700;-58
2021/12/30 09:35:10;;;;;;;34.42;17.20;;;12.10;99.90;;;;;;4978733;28;20034;-58
2021/12/30 09:37:36;;;;;;;33.40;16.70;;;12.10;99.90;;;;;;4978964;28;20490;-58
2021/12/30 09:40:04;;;;;;;30.23;15.85;;;12.10;99.90;;;;;;4979660;28;20034;-58
2021/12/30 09:42:30;;;;;;;29.65;13.25;;;12.10;99.90;;;;;;4979379;28;20053;-58
2021/12/30 09:44:56;;;;;;;29.38;13.85;;;12.10;99.90;;;;;;4979185;28;20051;-58
2021/12/30 09:47:22;;;;;;;30.02;12.98;;;12.20;99.90;;;;;;4977840;28;20044;-58
2021/12/30 09:49:50;;;;;;;26.98;12.40;;;12.20;99.90;;;;;;4977823;28;20038;-58
2021/12/30 09:52:16;;;;;;;31.00;12.23;;;12.20;99.90;;;;;;4978306;28;20026;-58
2021/12/30 09:54:42;;;;;;;30.58;10.85;;;12.20;99.90;;;;;;4979740;28;20077;-58
2021/12/30 09:57:07;;;;;;;35.42;10.50;;;12.20;99.90;;;;;;4978206;28;20471;-58
2021/12/30 09:59:34;;;;;;;30.05;9.68;;;12.20;99.90;;;;;;4979703;28;20446;-58
2021/12/30 10:02:00;;;;;;;26.38;9.60;;;12.20;99.90;;;;;;4978352;28;20505;-58
2021/12/30 10:04:30;;;;;;;33.92;9.30;;;12.20;99.90;;;;;;4978820;28;20038;-58
2021/12/30 10:06:56;;;;;;;29.92;9.20;;;12.20;99.90;;;;;;4976571;28;20501;-58
2021/12/30 10:09:29;;;;;;;28.67;8.75;;;12.30;99.90;;;;;;4977661;28;20047;-58
2021/12/30 10:11:56;;;;;;;26.45;8.82;;;12.30;99.90;;;;;;4975898;28;20498;-58
2021/12/30 10:14:52;;;;;;;25.55;8.32;;;12.30;99.90;;;;;;4973340;28;20035;-58
2021/12/30 10:17:23;;;;;;;28.15;8.88;;;12.30;99.90;;;;;;4974626;28;20548;-58
2021/12/30 10:19:51;;;;;;;29.23;8.20;;;12.30;99.90;;;;;;4973570;28;20051;-58
2021/12/30 10:22:22;;;;;;;24.30;7.47;;;12.30;99.90;;;;;;4974315;28;20043;-59
2021/12/30 10:24:49;;;;;;;30.17;8.93;;;12.30;99.90;;;;;;4972670;28;20038;-58
2021/12/30 10:27:29;;;;;;;31.50;9.00;;;12.30;99.90;;;;;;4974022;28;20113;-58
2021/12/30 10:29:56;;;;;;;23.77;8.82;;;12.20;99.90;;;;;;4976521;28;20042;-58
2021/12/30 10:32:25;;;;;;;39.40;10.30;;;12.20;99.90;;;;;;4979654;28;20375;-58
2021/12/30 10:35:02;;;;;;;42.85;10.95;;;12.20;99.90;;;;;;4978787;28;20034;-58
2021/12/30 10:37:28;;;;;;;36.50;10.70;;;12.20;99.90;;;;;;4978104;28;20042;-58
2021/12/30 10:39:54;;;;;;;42.20;10.27;;;12.20;99.90;;;;;;4981261;28;20077;-58
2021/12/30 10:42:21;;;;;;;43.05;10.52;;;12.20;99.90;;;;;;4986511;28;20128;-58
2021/12/30 10:44:56;;;;;;;31.73;9.32;;;12.20;99.90;;;;;;4980749;28;20089;-57
2021/12/30 10:47:24;;;;;;;47.03;10.30;;;12.20;99.90;;;;;;4977421;28;20034;-57
2021/12/30 10:50:04;;;;;;;37.78;9.40;;;12.20;99.90;;;;;;4981107;28;20471;-57
2021/12/30 10:52:30;;;;;;;41.42;9.73;;;12.20;99.90;;;;;;4985311;28;20483;-57
2021/12/30 10:54:58;;;;;;;41.78;10.65;;;12.20;99.90;;;;;;4983613;28;20040;-57
2021/12/30 10:57:28;;;;;;;40.90;9.45;;;12.20;99.90;;;;;;4976703;28;20438;-57
2021/12/30 10:59:54;;;;;;;51.60;10.27;;;12.20;99.90;;;;;;4971485;28;20053;-58
2021/12/30 11:02:22;;;;;;;36.95;9.40;;;12.20;99.90;;;;;;4979646;28;20049;-57
2021/12/30 11:04:54;;;;;;;48.50;9.48;;;12.10;99.90;;;;;;4980324;28;20398;-58
2021/12/30 11:07:24;;;;;;;37.63;8.20;;;12.20;99.90;;;;;;4972520;28;20057;-57
2021/12/30 11:09:53;;;;;;;40.28;8.52;;;12.20;99.90;;;;;;4974681;28;20085;-58
2021/12/30 11:12:28;;;;;;;41.03;9.07;;;12.20;99.90;;;;;;4976419;28;20440;-58
2021/12/30 11:14:55;;;;;;;44.83;8.48;;;12.20;99.90;;;;;;4978275;28;20486;-58
2021/12/30 11:17:33;;;;;;;39.20;7.40;;;12.20;99.90;;;;;;4980437;28;20047;-58
2021/12/30 11:20:01;;;;;;;37.78;7.55;;;12.20;99.90;;;;;;4974919;28;20046;-58
2021/12/30 11:22:30;;;;;;;39.08;7.10;;;12.20;99.90;;;;;;4974210;28;20392;-58
2021/12/30 11:24:57;;;;;;;39.30;6.70;;;12.20;99.90;;;;;;4976464;28;20050;-58
2021/12/30 11:27:25;;;;;;;35.47;6.95;;;12.20;99.90;;;;;;4977865;28;20387;-58
2021/12/30 11:29:58;;;;;;;26.23;6.00;;;12.20;99.90;;;;;;4979963;28;20047;-59
2021/12/30 11:32:28;;;;;;;36.05;6.60;;;12.20;99.90;;;;;;4984075;28;20039;-58
2021/12/30 11:34:54;;;;;;;29.75;6.82;;;12.20;99.90;;;;;;4969405;28;20038;-58
2021/12/30 11:37:20;;;;;;;31.80;6.60;;;12.20;99.90;;;;;;4975723;28;20122;-58
2021/12/30 11:39:53;;;;;;;31.85;6.85;;;12.30;99.90;;;;;;4977704;28;20037;-58
2021/12/30 11:42:20;;;;;;;34.30;6.25;;;12.30;99.90;;;;;;4966695;28;20042;-58
2021/12/30 11:44:58;;;;;;;34.75;6.93;;;12.30;99.90;;;;;;4974817;28;20053;-57
2021/12/30 11:47:36;;;;;;;38.88;6.45;;;12.30;99.90;;;;;;4970399;28;20360;-57
2021/12/30 11:50:11;;;;;;;31.52;6.40;;;12.30;99.90;;;;;;4972016;28;20394;-57
2021/12/30 11:52:47;;;;;;;38.17;6.82;;;12.30;99.90;;;;;;4974636;28;20093;-56
2021/12/30 11:55:49;;;;;;;29.73;6.60;;;12.30;99.90;;;;;;4978279;28;20486;-56
2021/12/30 11:58:32;;;;;;;33.60;6.20;;;12.30;99.90;;;;;;4978628;28;20046;-56
2021/12/30 12:01:12;;;;;;;34.03;6.13;;;12.30;99.90;;;;;;4979676;28;20119;-57
2021/12/30 12:03:45;;;;;;;30.92;6.90;;;12.30;99.90;;;;;;4977903;28;20550;-56
2021/12/30 12:06:28;;;;;;;30.45;6.88;;;12.30;99.90;;;;;;4975481;28;20047;-57
2021/12/30 12:09:06;;;;;;;27.42;5.93;;;12.30;99.90;;;;;;4977619;28;20054;-57
2021/12/30 12:11:41;;;;;;;31.90;6.03;;;12.30;99.90;;;;;;4975067;28;20125;-57
2021/12/30 12:14:18;;;;;;;30.80;6.03;;;12.30;99.90;;;;;;4959090;28;21860;-57
2021/12/30 12:17:02;;;;;;;27.60;5.70;;;12.30;99.90;;;;;;4958555;28;20043;-56
2021/12/30 12:19:41;;;;;;;32.90;5.93;;;12.30;99.90;;;;;;4960818;28;20043;-56
2021/12/30 12:22:28;;;;;;;33.42;5.43;;;12.30;99.90;;;;;;4963389;28;20054;-57
2021/12/30 12:25:07;;;;;;;28.83;5.68;;;12.40;99.90;;;;;;4962344;28;20069;-57
2021/12/30 12:27:36;;;;;;;24.90;5.38;;;12.40;99.90;;;;;;4963686;28;20893;-57
2021/12/30 12:30:05;;;;;;;21.85;5.20;;;12.40;99.90;;;;;;4965793;28;20042;-56
2021/12/30 12:32:30;;;;;;;22.58;5.28;;;12.40;99.90;;;;;;4967543;28;20050;-57
2021/12/30 12:34:58;;;;;;;30.63;6.30;;;12.40;99.90;;;;;;4963770;28;20101;-57